ADDS METAR Data

Data at: 0504 UTC 20 Apr 2018

METAR for:KMVY (Marthas Vineyard Arp, MA, US)
Text:KMVY 200453Z AUTO 30011G19KT 10SM BKN055 OVC095 04/00 A2984 RMK AO2 SLP106 T00440000 400610044
Temperature: 4.4°C ( 40°F)
Dewpoint: 0.0°C ( 32°F) [RH = 73%]
Pressure (altimeter):29.84 inches Hg (1010.6 mb) [Sea level pressure: 1010.6 mb]
Winds:from the WNW (300 degrees) at 13 MPH (11 knots; 5.7 m/s) gusting to 22 MPH (19 knots; 9.8 m/s)
Visibility:10 or more sm (16+ km)
Ceiling:5500 feet AGL
Clouds: broken clouds at 5500 feet AGL, overcast cloud deck at 9500 feet AGL
QC Flag:automated observation with no human augmentation